KTOI/TOI METAR and TAF weather

Enter ICAO airport designator
Station Type Date Time Source
KTOI METAR 2021/01/17 18:53 UTC NOAA

KTOI 171853Z AUTO 19007KT 10SM CLR 13/M02 A2999 RMK AO2 SLP155 T01281022


Station Type Date Time Source
KTOI Decoded METAR 2021/01/17 18:53 UTC NOAA

TROY MUNICIPAL AIRPORT, AL, United States (KTOI) 31-52N 086-01W 118M
Jan 17, 2021 - 01:53 PM EST / 2021.01.17 1853 UTC
Wind: from the S (190 degrees) at 8 MPH (7 KT):0
Visibility: 10 mile(s):0
Sky conditions: clear
Temperature: 55.0 F (12.8 C)
Dew Point: 28.0 F (-2.2 C)
Relative Humidity: 35%
Pressure (altimeter): 29.99 in. Hg (1015 hPa)
ob: KTOI 171853Z AUTO 19007KT 10SM CLR 13/M02 A2999 RMK AO2 SLP155 T01281022
cycle: 19

Station Type Date Time Source
KTOI TAF 2021/01/17 18:27 UTC NOAA

TAF KTOI 171725Z 1718/1818 22008G16KT P6SM SCT150
FM180100 21006KT P6SM SCT150
FM180500 26004KT P6SM FEW200

Example: see airport list